Time;durP1;ratioP1;P1;durP2;ratioP2;P2;SDS_P1;SDS_P2;PMS_P1;PMS_P2;Temp;Humidity;BMP_temperature;BMP_pressure;BME280_temperature;BME280_humidity;BME280_pressure;Samples;Min_cycle;Max_cycle;Signal;HPM_P1;HPM_P2
2022/06/24 00:01:18;;;;;;;2.93;2.40;;;;;;;;;;5034615;28;20251;-54
2022/06/24 00:03:44;;;;;;;3.13;2.50;;;;;;;;;;5034775;28;20217;-55
2022/06/24 00:06:15;;;;;;;4.27;2.40;;;;;;;;;;5034911;28;20671;-55
2022/06/24 00:08:51;;;;;;;3.60;2.40;;;;;;;;;;5035273;28;20198;-55
2022/06/24 00:11:22;;;;;;;3.70;2.60;;;;;;;;;;5033804;28;20201;-55
2022/06/24 00:13:50;;;;;;;2.80;2.30;;;;;;;;;;5034947;28;20276;-55
2022/06/24 00:16:16;;;;;;;2.90;2.50;;;;;;;;;;5034701;28;20268;-55
2022/06/24 00:18:42;;;;;;;3.50;2.60;;;;;;;;;;5034921;28;20197;-55
2022/06/24 00:21:12;;;;;;;4.43;2.70;;;;;;;;;;5035064;28;20599;-55
2022/06/24 00:23:42;;;;;;;3.17;2.30;;;;;;;;;;5035127;28;20229;-55
2022/06/24 00:26:08;;;;;;;3.00;2.17;;;;;;;;;;5034841;28;20217;-55
2022/06/24 00:28:34;;;;;;;4.67;2.87;;;;;;;;;;5034425;28;20212;-55
2022/06/24 00:31:02;;;;;;;3.47;2.30;;;;;;;;;;5034700;28;20201;-55
2022/06/24 00:33:32;;;;;;;2.30;2.10;;;;;;;;;;5034655;28;20197;-55
2022/06/24 00:36:02;;;;;;;4.93;2.87;;;;;;;;;;5034519;28;20207;-55
2022/06/24 00:38:29;;;;;;;3.87;2.40;;;;;;;;;;5034639;28;20607;-55
2022/06/24 00:40:56;;;;;;;4.57;2.47;;;;;;;;;;5034564;28;20341;-55
2022/06/24 00:43:27;;;;;;;4.17;2.53;;;;;;;;;;5034356;28;20225;-55
2022/06/24 00:45:56;;;;;;;8.70;3.00;;;;;;;;;;5034368;28;20204;-55
2022/06/24 00:48:25;;;;;;;2.40;2.20;;;;;;;;;;5034456;28;20201;-55
2022/06/24 00:50:51;;;;;;;2.80;2.30;;;;;;;;;;5034162;28;20212;-55
2022/06/24 00:53:17;;;;;;;9.10;2.63;;;;;;;;;;5034383;28;20288;-55
2022/06/24 00:55:45;;;;;;;3.13;2.57;;;;;;;;;;5034312;28;20645;-55
2022/06/24 00:58:12;;;;;;;3.77;2.50;;;;;;;;;;5034785;28;20201;-55
2022/06/24 01:00:41;;;;;;;3.03;2.50;;;;;;;;;;5034534;28;20671;-55
2022/06/24 01:03:07;;;;;;;2.93;2.60;;;;;;;;;;5033932;28;20275;-55
2022/06/24 01:05:34;;;;;;;2.67;2.47;;;;;;;;;;5034089;28;20193;-54
2022/06/24 01:08:07;;;;;;;4.10;2.30;;;;;;;;;;5033842;28;20211;-54
2022/06/24 01:10:33;;;;;;;3.23;2.60;;;;;;;;;;5034042;28;20196;-55
2022/06/24 01:12:59;;;;;;;2.83;2.50;;;;;;;;;;5033572;28;20205;-55
2022/06/24 01:15:25;;;;;;;2.70;2.50;;;;;;;;;;5033855;28;20336;-55
2022/06/24 01:17:51;;;;;;;3.33;2.60;;;;;;;;;;5033792;28;20196;-54
2022/06/24 01:20:18;;;;;;;3.50;2.60;;;;;;;;;;5033865;28;20746;-54
2022/06/24 01:22:45;;;;;;;4.23;2.60;;;;;;;;;;5033267;28;20196;-55
2022/06/24 01:25:12;;;;;;;3.17;2.60;;;;;;;;;;5033911;28;20251;-55
2022/06/24 01:27:38;;;;;;;2.80;2.57;;;;;;;;;;5033661;28;20213;-55
2022/06/24 01:30:05;;;;;;;3.03;2.73;;;;;;;;;;5033177;28;20260;-54
2022/06/24 01:32:31;;;;;;;2.93;2.63;;;;;;;;;;5033585;28;20262;-55
2022/06/24 01:34:57;;;;;;;5.27;3.13;;;;;;;;;;5033589;28;20193;-55
2022/06/24 01:37:23;;;;;;;4.43;2.70;;;;;;;;;;5032222;28;20197;-55
2022/06/24 01:39:51;;;;;;;3.60;2.73;;;;;;;;;;5033416;28;20232;-54
2022/06/24 01:42:17;;;;;;;3.60;3.30;;;;;;;;;;5033189;28;20201;-55
2022/06/24 01:44:43;;;;;;;3.43;2.90;;;;;;;;;;5033263;28;20225;-55
2022/06/24 01:47:09;;;;;;;2.97;2.57;;;;;;;;;;5033111;28;20215;-54
2022/06/24 01:49:35;;;;;;;3.13;2.83;;;;;;;;;;5033190;28;20685;-54
2022/06/24 01:52:01;;;;;;;3.65;3.30;;;;;;;;;;5031969;28;20407;-55
2022/06/24 01:54:27;;;;;;;3.43;2.80;;;;;;;;;;5031991;28;20487;-54
2022/06/24 01:56:55;;;;;;;3.83;2.93;;;;;;;;;;5033221;28;20575;-55
2022/06/24 01:59:21;;;;;;;3.40;2.77;;;;;;;;;;5033303;28;20676;-55
2022/06/24 02:01:47;;;;;;;3.17;2.87;;;;;;;;;;5032878;28;20201;-55
2022/06/24 02:04:14;;;;;;;4.57;2.90;;;;;;;;;;5032819;28;20302;-55
2022/06/24 02:06:40;;;;;;;3.00;2.80;;;;;;;;;;5032861;28;20652;-54
2022/06/24 02:09:07;;;;;;;5.13;3.03;;;;;;;;;;5032813;28;20197;-54
2022/06/24 02:14:20;;;;;;;3.67;2.90;;;;;;;;;;5032429;28;20287;-54
2022/06/24 02:16:46;;;;;;;3.27;3.00;;;;;;;;;;5032653;28;20256;-55
2022/06/24 02:19:12;;;;;;;5.47;3.37;;;;;;;;;;5032774;28;20624;-54
2022/06/24 02:21:38;;;;;;;3.30;3.00;;;;;;;;;;5032873;28;20191;-54
2022/06/24 02:24:05;;;;;;;3.53;3.17;;;;;;;;;;5032569;28;20315;-54
2022/06/24 02:26:31;;;;;;;4.73;3.40;;;;;;;;;;5032610;28;20217;-54
2022/06/24 02:28:57;;;;;;;4.73;3.10;;;;;;;;;;5032593;28;20245;-54
2022/06/24 02:31:24;;;;;;;3.83;3.10;;;;;;;;;;5032395;28;20347;-55
2022/06/24 02:33:50;;;;;;;4.40;3.20;;;;;;;;;;5031535;28;20200;-54
2022/06/24 02:36:18;;;;;;;4.33;2.90;;;;;;;;;;5032839;28;20206;-54
2022/06/24 02:38:44;;;;;;;4.37;2.93;;;;;;;;;;5032437;28;20279;-54
2022/06/24 02:41:10;;;;;;;5.53;3.30;;;;;;;;;;5032407;28;20235;-54
2022/06/24 02:43:37;;;;;;;5.33;3.23;;;;;;;;;;5032297;28;20254;-54
2022/06/24 02:46:04;;;;;;;4.23;2.90;;;;;;;;;;5032452;28;20205;-54
2022/06/24 02:48:32;;;;;;;4.73;3.30;;;;;;;;;;5032349;28;20200;-55
2022/06/24 02:50:59;;;;;;;3.40;3.10;;;;;;;;;;5032184;28;20205;-55
2022/06/24 02:53:26;;;;;;;3.00;2.70;;;;;;;;;;5032438;28;20589;-54
2022/06/24 02:55:53;;;;;;;4.87;3.03;;;;;;;;;;5032321;28;20193;-54
2022/06/24 02:58:19;;;;;;;4.93;3.17;;;;;;;;;;5032700;28;20200;-55
2022/06/24 03:00:45;;;;;;;3.43;3.13;;;;;;;;;;5032182;28;20738;-54
2022/06/24 03:03:12;;;;;;;3.10;2.90;;;;;;;;;;5032058;28;20221;-54
2022/06/24 03:05:40;;;;;;;4.23;3.07;;;;;;;;;;5032314;28;20200;-54
2022/06/24 03:08:06;;;;;;;3.50;3.20;;;;;;;;;;5030277;28;20228;-54
2022/06/24 03:10:32;;;;;;;3.30;3.00;;;;;;;;;;5032206;28;20197;-54
2022/06/24 03:12:58;;;;;;;3.77;2.93;;;;;;;;;;5030227;28;20199;-54
2022/06/24 03:15:24;;;;;;;3.38;3.08;;;;;;;;;;5029074;28;20495;-55
2022/06/24 03:17:50;;;;;;;4.10;3.08;;;;;;;;;;5030701;28;20395;-54
2022/06/24 03:20:16;;;;;;;3.77;3.20;;;;;;;;;;5030769;28;20403;-54
2022/06/24 03:22:44;;;;;;;3.47;2.80;;;;;;;;;;5030386;28;20399;-55
2022/06/24 03:25:10;;;;;;;4.88;3.10;;;;;;;;;;5030413;28;20434;-54
2022/06/24 03:27:36;;;;;;;3.40;3.00;;;;;;;;;;5029006;28;20403;-54
2022/06/24 03:30:03;;;;;;;3.30;2.97;;;;;;;;;;5028740;28;20787;-54
2022/06/24 03:32:29;;;;;;;4.60;3.13;;;;;;;;;;5030564;28;20399;-54
2022/06/24 03:34:55;;;;;;;3.30;2.85;;;;;;;;;;5030561;28;20407;-54
2022/06/24 03:37:21;;;;;;;3.50;2.80;;;;;;;;;;5030251;28;20406;-54
2022/06/24 03:39:48;;;;;;;4.90;3.17;;;;;;;;;;5030194;28;20407;-54
2022/06/24 03:42:14;;;;;;;3.38;2.95;;;;;;;;;;5030237;28;20430;-54
2022/06/24 03:44:40;;;;;;;3.38;2.92;;;;;;;;;;5032086;28;20901;-54
2022/06/24 03:47:06;;;;;;;4.35;2.88;;;;;;;;;;5034529;28;20406;-54
2022/06/24 03:49:32;;;;;;;3.95;2.97;;;;;;;;;;5034216;28;20900;-54
2022/06/24 03:51:58;;;;;;;4.10;2.90;;;;;;;;;;5030430;28;20399;-54
2022/06/24 03:54:24;;;;;;;3.88;2.90;;;;;;;;;;5033746;28;20418;-54
2022/06/24 03:56:52;;;;;;;3.72;2.95;;;;;;;;;;5033910;28;20411;-54
2022/06/24 03:59:30;;;;;;;3.58;2.75;;;;;;;;;;5033734;28;20441;-54
2022/06/24 04:01:56;;;;;;;4.00;3.00;;;;;;;;;;5030167;28;20403;-54
2022/06/24 04:04:22;;;;;;;3.22;2.92;;;;;;;;;;5033637;28;20449;-54
2022/06/24 04:06:48;;;;;;;4.63;3.25;;;;;;;;;;5033536;28;20407;-54
2022/06/24 04:09:14;;;;;;;4.43;2.92;;;;;;;;;;5033646;28;20399;-54
2022/06/24 04:11:40;;;;;;;3.63;2.83;;;;;;;;;;5033465;28;20878;-54
2022/06/24 04:14:07;;;;;;;6.27;2.90;;;;;;;;;;5034817;28;20200;-54
2022/06/24 04:16:33;;;;;;;3.37;2.90;;;;;;;;;;5034664;28;20734;-54
2022/06/24 04:18:59;;;;;;;7.77;2.73;;;;;;;;;;5034807;28;20688;-54
2022/06/24 04:21:25;;;;;;;2.90;2.70;;;;;;;;;;5035053;28;20201;-54
2022/06/24 04:23:51;;;;;;;2.97;2.67;;;;;;;;;;5034887;28;20259;-54
2022/06/24 04:26:17;;;;;;;6.17;3.10;;;;;;;;;;5034521;28;20764;-54
2022/06/24 04:28:44;;;;;;;3.73;2.70;;;;;;;;;;5034799;28;20204;-54
2022/06/24 04:31:11;;;;;;;4.87;3.20;;;;;;;;;;5034689;28;20228;-54
2022/06/24 04:33:37;;;;;;;6.47;3.43;;;;;;;;;;5034688;28;20221;-55
2022/06/24 04:36:03;;;;;;;4.60;2.70;;;;;;;;;;5034498;28;20208;-54
2022/06/24 04:38:29;;;;;;;3.20;2.87;;;;;;;;;;5034695;28;20197;-54
2022/06/24 04:40:55;;;;;;;3.70;2.80;;;;;;;;;;5034625;28;20200;-54
2022/06/24 04:43:21;;;;;;;4.37;3.00;;;;;;;;;;5034028;28;20287;-54
2022/06/24 04:45:47;;;;;;;5.47;2.93;;;;;;;;;;5034388;28;20235;-54
2022/06/24 04:48:15;;;;;;;5.50;3.00;;;;;;;;;;5034361;28;20251;-54
2022/06/24 04:50:41;;;;;;;4.97;2.90;;;;;;;;;;5032613;28;20667;-54
2022/06/24 04:53:07;;;;;;;5.87;2.87;;;;;;;;;;5030380;28;20228;-55
2022/06/24 04:55:33;;;;;;;6.20;2.90;;;;;;;;;;5031271;28;20240;-55
2022/06/24 04:57:59;;;;;;;4.20;2.80;;;;;;;;;;5033451;28;20196;-55
2022/06/24 05:00:25;;;;;;;5.57;3.13;;;;;;;;;;5033666;28;20276;-55
2022/06/24 05:02:51;;;;;;;5.60;3.17;;;;;;;;;;5033649;28;20678;-55
2022/06/24 05:05:19;;;;;;;2.80;2.60;;;;;;;;;;5033935;28;20717;-56
2022/06/24 05:07:45;;;;;;;6.20;3.03;;;;;;;;;;5034097;28;20218;-55
2022/06/24 05:10:11;;;;;;;4.80;2.80;;;;;;;;;;5033458;28;20565;-54
2022/06/24 05:12:37;;;;;;;3.43;2.80;;;;;;;;;;5033876;28;20201;-55
2022/06/24 05:15:03;;;;;;;4.93;3.40;;;;;;;;;;5033130;28;20752;-55
2022/06/24 05:17:29;;;;;;;2.83;2.60;;;;;;;;;;5033663;28;20189;-55
2022/06/24 05:19:55;;;;;;;3.30;2.80;;;;;;;;;;5033853;28;20220;-55
2022/06/24 05:22:22;;;;;;;4.17;2.87;;;;;;;;;;5033557;28;20239;-55
2022/06/24 05:24:48;;;;;;;3.30;2.83;;;;;;;;;;5033524;28;20220;-54
2022/06/24 05:27:14;;;;;;;3.17;2.87;;;;;;;;;;5033364;28;20213;-55
2022/06/24 05:29:40;;;;;;;5.80;2.93;;;;;;;;;;5033413;28;20197;-55
2022/06/24 05:32:07;;;;;;;3.63;2.90;;;;;;;;;;5033251;28;20258;-55
2022/06/24 05:34:33;;;;;;;4.40;2.90;;;;;;;;;;5033514;28;20205;-55
2022/06/24 05:36:59;;;;;;;5.53;2.77;;;;;;;;;;5033092;28;20204;-55
2022/06/24 05:39:26;;;;;;;4.10;2.47;;;;;;;;;;5033612;28;20200;-55
2022/06/24 05:41:52;;;;;;;4.03;2.83;;;;;;;;;;5033462;28;20271;-55
2022/06/24 05:44:18;;;;;;;4.13;2.50;;;;;;;;;;5033039;28;20758;-54
2022/06/24 05:46:44;;;;;;;2.60;2.40;;;;;;;;;;5032920;28;20196;-53
2022/06/24 05:49:10;;;;;;;3.27;2.60;;;;;;;;;;5033081;28;20672;-53
2022/06/24 05:51:36;;;;;;;3.27;2.80;;;;;;;;;;5033077;28;20296;-53
2022/06/24 05:56:48;;;;;;;3.33;2.80;;;;;;;;;;5032717;28;20260;-53
2022/06/24 05:59:15;;;;;;;2.93;2.63;;;;;;;;;;5032966;28;20206;-53
2022/06/24 06:01:41;;;;;;;2.53;2.33;;;;;;;;;;5033163;28;20201;-53
2022/06/24 06:04:07;;;;;;;2.60;2.40;;;;;;;;;;5032486;28;20259;-53
2022/06/24 06:06:34;;;;;;;2.90;2.37;;;;;;;;;;5032609;28;20218;-53
2022/06/24 06:09:00;;;;;;;8.40;2.43;;;;;;;;;;5032581;28;20206;-53
2022/06/24 06:11:27;;;;;;;3.03;2.50;;;;;;;;;;5032769;28;20208;-53
2022/06/24 06:13:55;;;;;;;2.97;2.10;;;;;;;;;;5032730;28;20224;-53
2022/06/24 06:16:22;;;;;;;4.43;2.40;;;;;;;;;;5032000;28;20240;-53
2022/06/24 06:18:48;;;;;;;2.80;2.40;;;;;;;;;;5032727;28;20785;-56
2022/06/24 06:21:15;;;;;;;3.90;2.87;;;;;;;;;;5032029;28;20237;-53
2022/06/24 06:23:41;;;;;;;4.50;2.63;;;;;;;;;;5032576;28;20250;-53
2022/06/24 06:26:08;;;;;;;3.30;2.67;;;;;;;;;;5032017;28;20226;-53
2022/06/24 06:28:34;;;;;;;4.40;2.50;;;;;;;;;;5032495;28;20194;-53
2022/06/24 06:31:02;;;;;;;4.63;2.50;;;;;;;;;;5032148;28;20234;-53
2022/06/24 06:33:31;;;;;;;4.63;2.47;;;;;;;;;;5032012;28;20672;-53
2022/06/24 06:36:01;;;;;;;4.60;2.53;;;;;;;;;;5032249;28;20663;-53
2022/06/24 06:38:27;;;;;;;4.20;2.30;;;;;;;;;;5031971;28;20210;-53
2022/06/24 06:40:53;;;;;;;2.87;2.40;;;;;;;;;;5032310;28;20254;-53
2022/06/24 06:43:19;;;;;;;4.17;2.73;;;;;;;;;;5032100;28;20257;-53
2022/06/24 06:45:45;;;;;;;4.37;2.40;;;;;;;;;;5032004;28;20662;-54
2022/06/24 06:48:12;;;;;;;4.20;2.40;;;;;;;;;;5032202;28;20202;-54
2022/06/24 06:50:38;;;;;;;4.60;2.50;;;;;;;;;;5032394;28;20216;-55
2022/06/24 06:53:04;;;;;;;6.43;2.47;;;;;;;;;;5032332;28;20200;-56
2022/06/24 06:55:30;;;;;;;7.20;2.50;;;;;;;;;;5032094;28;20231;-54
2022/06/24 06:57:56;;;;;;;7.43;2.37;;;;;;;;;;5032120;28;20209;-53
2022/06/24 07:00:22;;;;;;;4.00;2.47;;;;;;;;;;5031997;28;20694;-54
2022/06/24 07:02:48;;;;;;;5.07;2.30;;;;;;;;;;5030033;28;20211;-54
2022/06/24 07:05:16;;;;;;;6.43;2.23;;;;;;;;;;5030089;28;20237;-54
2022/06/24 07:07:41;;;;;;;3.60;1.90;;;;;;;;;;5032217;28;20197;-55
2022/06/24 07:10:08;;;;;;;3.40;2.47;;;;;;;;;;5031372;28;20200;-54
2022/06/24 07:12:33;;;;;;;5.90;2.27;;;;;;;;;;5031379;28;20196;-55
2022/06/24 07:14:59;;;;;;;6.43;2.57;;;;;;;;;;5027632;28;20689;-55
2022/06/24 07:17:25;;;;;;;5.17;2.50;;;;;;;;;;5031998;28;20191;-54
2022/06/24 07:19:51;;;;;;;3.57;2.00;;;;;;;;;;5034044;28;20689;-55
2022/06/24 07:22:19;;;;;;;4.47;2.27;;;;;;;;;;5035358;28;20211;-54
2022/06/24 07:24:45;;;;;;;5.47;2.47;;;;;;;;;;5035422;28;20285;-54
2022/06/24 07:27:11;;;;;;;4.33;2.23;;;;;;;;;;5035705;28;20218;-54
2022/06/24 07:29:37;;;;;;;7.80;2.53;;;;;;;;;;5035858;28;20199;-54
2022/06/24 07:32:04;;;;;;;4.73;2.37;;;;;;;;;;5035843;28;20751;-54
2022/06/24 07:34:31;;;;;;;5.57;2.27;;;;;;;;;;5035628;28;20196;-54
2022/06/24 07:36:57;;;;;;;7.07;2.70;;;;;;;;;;5035760;28;20197;-54
2022/06/24 07:39:24;;;;;;;7.03;2.37;;;;;;;;;;5035163;28;20214;-54
2022/06/24 07:41:50;;;;;;;4.60;2.20;;;;;;;;;;5035647;28;20201;-54
2022/06/24 07:44:16;;;;;;;4.73;2.00;;;;;;;;;;5035248;28;20266;-54
2022/06/24 07:46:42;;;;;;;5.10;2.57;;;;;;;;;;5035268;28;20543;-55
2022/06/24 07:49:08;;;;;;;5.43;2.50;;;;;;;;;;5035101;28;20192;-55
2022/06/24 07:51:34;;;;;;;6.60;2.30;;;;;;;;;;5035409;28;20208;-54
2022/06/24 07:54:01;;;;;;;5.37;2.40;;;;;;;;;;5035113;28;20193;-54
2022/06/24 07:59:13;;;;;;;7.03;2.57;;;;;;;;;;5035235;28;20339;-54
2022/06/24 08:01:39;;;;;;;3.77;2.30;;;;;;;;;;5033985;28;20299;-54
2022/06/24 08:04:07;;;;;;;4.63;2.50;;;;;;;;;;5033445;28;20225;-55
2022/06/24 08:06:34;;;;;;;4.87;2.40;;;;;;;;;;5034919;28;20900;-54
2022/06/24 08:09:00;;;;;;;4.23;2.67;;;;;;;;;;5035117;28;20224;-54
2022/06/24 08:11:26;;;;;;;5.10;2.50;;;;;;;;;;5034836;28;20290;-54
2022/06/24 08:13:53;;;;;;;5.40;3.03;;;;;;;;;;5034685;28;20665;-55
2022/06/24 08:16:19;;;;;;;3.27;2.23;;;;;;;;;;5034609;28;20236;-55
2022/06/24 08:18:45;;;;;;;3.30;2.50;;;;;;;;;;5034893;28;20667;-54
2022/06/24 08:21:11;;;;;;;7.87;2.27;;;;;;;;;;5034304;28;20252;-55
2022/06/24 08:23:37;;;;;;;7.07;2.63;;;;;;;;;;5034429;28;20262;-52
2022/06/24 08:26:04;;;;;;;6.13;2.50;;;;;;;;;;5034519;28;20222;-53
2022/06/24 08:28:30;;;;;;;5.50;2.50;;;;;;;;;;5034335;28;20277;-51
2022/06/24 08:30:58;;;;;;;4.80;2.40;;;;;;;;;;5033322;28;20744;-52
2022/06/24 08:33:24;;;;;;;6.17;2.70;;;;;;;;;;5033736;28;20662;-54
2022/06/24 08:35:50;;;;;;;5.40;2.50;;;;;;;;;;5034341;28;20202;-54
2022/06/24 08:38:17;;;;;;;5.87;2.53;;;;;;;;;;5033789;28;20211;-55
2022/06/24 08:40:46;;;;;;;5.20;2.70;;;;;;;;;;5034058;28;20223;-55
2022/06/24 08:43:13;;;;;;;5.77;3.47;;;;;;;;;;5033992;28;20253;-55
2022/06/24 08:45:39;;;;;;;4.67;2.60;;;;;;;;;;5033598;28;20266;-55
2022/06/24 08:48:08;;;;;;;4.57;2.40;;;;;;;;;;5033700;28;20203;-54
2022/06/24 08:50:34;;;;;;;9.47;2.53;;;;;;;;;;5033655;28;20547;-54
2022/06/24 08:53:03;;;;;;;4.83;2.70;;;;;;;;;;5033851;28;20207;-54
2022/06/24 08:55:34;;;;;;;3.83;2.60;;;;;;;;;;5033454;28;20336;-54
2022/06/24 08:58:00;;;;;;;4.90;2.60;;;;;;;;;;5033871;28;20206;-54
2022/06/24 09:00:26;;;;;;;3.10;2.30;;;;;;;;;;5033232;28;20212;-54
2022/06/24 09:02:52;;;;;;;3.33;2.40;;;;;;;;;;5033633;28;20202;-54
2022/06/24 09:05:20;;;;;;;5.17;2.43;;;;;;;;;;5033301;28;20289;-54
2022/06/24 09:07:46;;;;;;;3.50;2.30;;;;;;;;;;5033450;28;20205;-53
2022/06/24 09:10:13;;;;;;;3.93;2.20;;;;;;;;;;5032849;28;20215;-54
2022/06/24 09:12:40;;;;;;;6.33;2.93;;;;;;;;;;5033307;28;20639;-55
2022/06/24 09:15:08;;;;;;;4.90;2.13;;;;;;;;;;5033074;28;20197;-54
2022/06/24 09:17:35;;;;;;;5.73;2.20;;;;;;;;;;5033123;28;20194;-55
2022/06/24 09:20:08;;;;;;;6.27;2.57;;;;;;;;;;5033233;28;20201;-55
2022/06/24 09:22:35;;;;;;;3.87;2.07;;;;;;;;;;5033615;28;20191;-55
2022/06/24 09:25:01;;;;;;;6.53;2.43;;;;;;;;;;5033277;28;20231;-55
2022/06/24 09:27:27;;;;;;;6.87;2.70;;;;;;;;;;5033135;28;20225;-55
2022/06/24 09:29:54;;;;;;;3.07;1.67;;;;;;;;;;5033431;28;20207;-55
2022/06/24 09:32:20;;;;;;;3.40;1.90;;;;;;;;;;5033045;28;20573;-55
2022/06/24 09:35:02;;;;;;;3.07;2.10;;;;;;;;;;5033080;28;20730;-55
2022/06/24 09:37:39;;;;;;;3.93;2.00;;;;;;;;;;5031364;28;20662;-55
2022/06/24 09:40:19;;;;;;;3.77;1.87;;;;;;;;;;5033301;28;20202;-55
2022/06/24 09:42:51;;;;;;;4.13;1.90;;;;;;;;;;5032805;28;20206;-54
2022/06/24 09:45:18;;;;;;;2.83;2.07;;;;;;;;;;5032338;28;20596;-55
2022/06/24 09:47:47;;;;;;;5.17;1.83;;;;;;;;;;5032818;28;20201;-55
2022/06/24 09:50:13;;;;;;;2.97;1.53;;;;;;;;;;5032876;28;20202;-55
2022/06/24 09:52:41;;;;;;;8.30;1.93;;;;;;;;;;5032891;28;20204;-55
2022/06/24 09:55:07;;;;;;;4.13;2.10;;;;;;;;;;5033111;28;20207;-55
2022/06/24 09:57:33;;;;;;;4.23;1.80;;;;;;;;;;5032639;28;20204;-55
2022/06/24 10:02:45;;;;;;;4.10;2.07;;;;;;;;;;5032601;28;20287;-55
2022/06/24 10:05:14;;;;;;;4.40;2.00;;;;;;;;;;5032485;28;20238;-55
2022/06/24 10:07:45;;;;;;;5.00;2.27;;;;;;;;;;5030516;28;20217;-55
2022/06/24 10:10:12;;;;;;;5.50;1.90;;;;;;;;;;5049968;28;20264;-55
2022/06/24 10:12:40;;;;;;;2.47;1.73;;;;;;;;;;5051009;28;20209;-55
2022/06/24 10:15:06;;;;;;;3.67;2.03;;;;;;;;;;5052295;28;20209;-54
2022/06/24 10:17:34;;;;;;;2.47;1.80;;;;;;;;;;5052273;28;20653;-54
2022/06/24 10:20:01;;;;;;;4.90;1.97;;;;;;;;;;5049119;28;20312;-55
2022/06/24 10:22:36;;;;;;;3.33;2.40;;;;;;;;;;5051175;28;20216;-54
2022/06/24 10:25:05;;;;;;;3.00;1.90;;;;;;;;;;5052114;28;20233;-54
2022/06/24 10:27:50;;;;;;;4.23;2.10;;;;;;;;;;5051970;28;20253;-54
2022/06/24 10:30:35;;;;;;;5.23;1.97;;;;;;;;;;5052239;28;20197;-54
2022/06/24 10:33:14;;;;;;;3.53;1.90;;;;;;;;;;5050092;28;20215;-53
2022/06/24 10:35:55;;;;;;;3.37;1.90;;;;;;;;;;5051594;28;20189;-54
2022/06/24 10:38:21;;;;;;;3.13;2.20;;;;;;;;;;5051893;28;20228;-55
2022/06/24 10:40:49;;;;;;;2.57;1.73;;;;;;;;;;5051588;28;20204;-54
2022/06/24 10:43:33;;;;;;;4.27;2.00;;;;;;;;;;5051882;28;20200;-55
2022/06/24 10:46:09;;;;;;;3.53;1.70;;;;;;;;;;5051602;28;20674;-54
2022/06/24 10:48:48;;;;;;;5.87;2.17;;;;;;;;;;5051516;28;20203;-54
2022/06/24 10:51:15;;;;;;;4.30;1.90;;;;;;;;;;5051911;28;20572;-54
2022/06/24 10:54:09;;;;;;;5.40;1.93;;;;;;;;;;5050917;28;20208;-54
2022/06/24 10:56:39;;;;;;;3.73;1.80;;;;;;;;;;5051697;28;20273;-54
2022/06/24 10:59:05;;;;;;;5.03;2.07;;;;;;;;;;5051630;28;20682;-54
2022/06/24 11:01:32;;;;;;;4.10;1.77;;;;;;;;;;5051300;28;20203;-53
2022/06/24 11:03:59;;;;;;;2.90;1.80;;;;;;;;;;5051638;28;20310;-53
2022/06/24 11:06:25;;;;;;;3.57;1.60;;;;;;;;;;5051510;28;20196;-55
2022/06/24 11:08:51;;;;;;;5.17;2.03;;;;;;;;;;5051313;28;20199;-55
2022/06/24 11:11:26;;;;;;;7.07;1.83;;;;;;;;;;5051392;28;20666;-54
2022/06/24 11:13:54;;;;;;;2.23;1.60;;;;;;;;;;5051603;28;20595;-56
2022/06/24 11:16:20;;;;;;;4.00;1.70;;;;;;;;;;5051624;28;20247;-56
2022/06/24 11:18:49;;;;;;;2.90;1.60;;;;;;;;;;5051251;28;20300;-57
2022/06/24 11:21:17;;;;;;;3.00;1.77;;;;;;;;;;5051628;28;20193;-56
2022/06/24 11:23:45;;;;;;;2.73;1.80;;;;;;;;;;5051320;28;20213;-56
2022/06/24 11:26:14;;;;;;;3.47;1.90;;;;;;;;;;5051398;28;20245;-56
2022/06/24 11:28:41;;;;;;;2.60;1.63;;;;;;;;;;5051181;28;20492;-55
2022/06/24 11:31:16;;;;;;;1.90;1.60;;;;;;;;;;5051496;28;20220;-56
2022/06/24 11:33:42;;;;;;;3.77;1.80;;;;;;;;;;5051250;28;20690;-55
2022/06/24 11:36:09;;;;;;;2.67;1.53;;;;;;;;;;5051510;28;20202;-55
2022/06/24 11:38:47;;;;;;;1.90;1.70;;;;;;;;;;5051432;28;20229;-55
2022/06/24 11:41:20;;;;;;;4.40;1.90;;;;;;;;;;5051287;28;20280;-54
2022/06/24 11:43:49;;;;;;;4.73;1.90;;;;;;;;;;5051220;28;20206;-55
2022/06/24 11:46:16;;;;;;;5.37;1.97;;;;;;;;;;5051225;28;20205;-55
2022/06/24 11:48:42;;;;;;;2.40;1.70;;;;;;;;;;5051275;28;20245;-55
2022/06/24 11:51:16;;;;;;;4.23;2.00;;;;;;;;;;5051233;28;20668;-55
2022/06/24 11:53:43;;;;;;;5.97;2.00;;;;;;;;;;5051010;28;20194;-55
2022/06/24 11:56:09;;;;;;;3.07;2.10;;;;;;;;;;5051261;28;20206;-54
2022/06/24 11:58:36;;;;;;;4.53;2.17;;;;;;;;;;5051033;28;20206;-55
2022/06/24 12:01:02;;;;;;;4.00;2.30;;;;;;;;;;5051352;28;20223;-55
2022/06/24 12:03:30;;;;;;;3.50;1.97;;;;;;;;;;5051089;28;20669;-54
2022/06/24 12:05:56;;;;;;;4.87;2.73;;;;;;;;;;5052995;28;20231;-54
2022/06/24 12:08:23;;;;;;;3.73;2.23;;;;;;;;;;5054828;28;20237;-54
2022/06/24 12:10:50;;;;;;;5.13;2.03;;;;;;;;;;5054431;28;20209;-54
2022/06/24 12:13:25;;;;;;;3.67;2.20;;;;;;;;;;5054717;28;20214;-54
2022/06/24 12:15:52;;;;;;;6.03;2.20;;;;;;;;;;5054251;28;20705;-53
2022/06/24 12:18:19;;;;;;;4.60;2.07;;;;;;;;;;5050479;28;20195;-54
2022/06/24 12:20:56;;;;;;;4.07;2.53;;;;;;;;;;5053428;28;20735;-54
2022/06/24 12:23:22;;;;;;;5.53;2.43;;;;;;;;;;5053926;28;20207;-54
2022/06/24 12:25:49;;;;;;;5.40;2.60;;;;;;;;;;5053618;28;20234;-54
2022/06/24 12:28:19;;;;;;;3.93;2.40;;;;;;;;;;5052069;28;20203;-55
2022/06/24 12:30:54;;;;;;;5.07;2.13;;;;;;;;;;5053963;28;20213;-54
2022/06/24 12:33:21;;;;;;;6.30;2.27;;;;;;;;;;5054600;28;20289;-55
2022/06/24 12:35:49;;;;;;;5.10;1.70;;;;;;;;;;5054560;28;20192;-58
2022/06/24 12:38:16;;;;;;;2.40;1.73;;;;;;;;;;5054663;28;20230;-57
2022/06/24 12:40:42;;;;;;;4.17;1.53;;;;;;;;;;5054500;28;20196;-54
2022/06/24 12:43:09;;;;;;;2.50;1.70;;;;;;;;;;5052941;28;20254;-55
2022/06/24 12:45:36;;;;;;;4.27;1.80;;;;;;;;;;5054164;28;20292;-55
2022/06/24 12:50:55;;;;;;;4.60;1.80;;;;;;;;;;5053842;28;20195;-54
2022/06/24 12:53:23;;;;;;;4.63;1.93;;;;;;;;;;5054147;28;20276;-54
2022/06/24 12:55:49;;;;;;;4.03;2.10;;;;;;;;;;5053772;28;20749;-55
2022/06/24 12:58:15;;;;;;;3.37;1.63;;;;;;;;;;5054135;28;20196;-55
2022/06/24 13:00:41;;;;;;;3.27;1.73;;;;;;;;;;5053994;28;20291;-54
2022/06/24 13:03:07;;;;;;;2.53;1.50;;;;;;;;;;5054058;28;20208;-54
2022/06/24 13:05:34;;;;;;;4.10;1.73;;;;;;;;;;5053536;28;20410;-54
2022/06/24 13:08:00;;;;;;;4.13;1.80;;;;;;;;;;5051358;28;20624;-54
2022/06/24 13:10:27;;;;;;;3.83;2.10;;;;;;;;;;5052169;28;20760;-58
2022/06/24 13:12:53;;;;;;;3.47;1.80;;;;;;;;;;5053018;28;20666;-55
2022/06/24 13:15:22;;;;;;;4.43;1.90;;;;;;;;;;5053544;28;20284;-54
2022/06/24 13:17:48;;;;;;;3.13;1.90;;;;;;;;;;5052703;28;20577;-55
2022/06/24 13:20:14;;;;;;;3.73;2.13;;;;;;;;;;5053419;28;20213;-55
2022/06/24 13:22:40;;;;;;;2.80;1.67;;;;;;;;;;5053209;28;20207;-53
2022/06/24 13:25:07;;;;;;;2.60;1.73;;;;;;;;;;5053228;28;20235;-55
2022/06/24 13:27:34;;;;;;;4.13;1.77;;;;;;;;;;5053173;28;20284;-55
2022/06/24 13:30:00;;;;;;;3.20;1.63;;;;;;;;;;5051547;28;20288;-55
2022/06/24 13:32:26;;;;;;;5.40;1.63;;;;;;;;;;5053299;28;20200;-55
2022/06/24 13:34:52;;;;;;;3.00;1.90;;;;;;;;;;5053202;28;20700;-54
2022/06/24 13:37:18;;;;;;;2.13;1.70;;;;;;;;;;5053288;28;20268;-54
2022/06/24 13:39:44;;;;;;;2.93;1.60;;;;;;;;;;5053104;28;20598;-54
2022/06/24 13:42:11;;;;;;;3.17;1.53;;;;;;;;;;5053445;28;20217;-54
2022/06/24 13:44:38;;;;;;;3.17;1.50;;;;;;;;;;5053106;28;20230;-55
2022/06/24 13:47:04;;;;;;;4.07;1.70;;;;;;;;;;5053094;28;20203;-55
2022/06/24 13:49:30;;;;;;;3.93;1.70;;;;;;;;;;5053066;28;20204;-55
2022/06/24 13:51:56;;;;;;;4.53;1.87;;;;;;;;;;5052781;28;20246;-54
2022/06/24 13:54:23;;;;;;;4.07;1.80;;;;;;;;;;5052944;28;20200;-55
2022/06/24 13:56:49;;;;;;;3.87;1.80;;;;;;;;;;5052714;28;20199;-55
2022/06/24 13:59:15;;;;;;;4.67;1.67;;;;;;;;;;5052817;28;20756;-54
2022/06/24 14:01:42;;;;;;;4.40;1.90;;;;;;;;;;5052620;28;20561;-54
2022/06/24 14:04:08;;;;;;;5.00;1.80;;;;;;;;;;5052773;28;20266;-54
2022/06/24 14:06:34;;;;;;;2.53;1.90;;;;;;;;;;5052750;28;20231;-54
2022/06/24 14:09:00;;;;;;;4.30;1.70;;;;;;;;;;5052641;28;20208;-54
2022/06/24 14:11:26;;;;;;;2.03;1.40;;;;;;;;;;5052811;28;20261;-54
2022/06/24 14:13:52;;;;;;;4.07;1.70;;;;;;;;;;5052524;28;20199;-54
2022/06/24 14:16:18;;;;;;;2.50;1.73;;;;;;;;;;5052516;28;20326;-55
2022/06/24 14:18:46;;;;;;;3.07;1.60;;;;;;;;;;5052165;28;20232;-54
2022/06/24 14:21:12;;;;;;;2.73;1.50;;;;;;;;;;5052110;28;20204;-52
2022/06/24 14:26:24;;;;;;;3.53;1.63;;;;;;;;;;5050307;28;20806;-55
2022/06/24 14:28:51;;;;;;;4.10;1.80;;;;;;;;;;5051649;28;20578;-54
2022/06/24 14:31:18;;;;;;;2.57;1.33;;;;;;;;;;5052130;28;20656;-54
2022/06/24 14:33:46;;;;;;;2.27;1.40;;;;;;;;;;5052228;28;20197;-53
2022/06/24 14:36:12;;;;;;;3.17;1.77;;;;;;;;;;5051974;28;20709;-53
2022/06/24 14:41:22;;;;;;;3.30;1.80;;;;;;;;;;5052278;28;20191;-55
2022/06/24 14:43:49;;;;;;;3.60;1.60;;;;;;;;;;5052063;28;20196;-54
2022/06/24 14:46:15;;;;;;;4.03;2.20;;;;;;;;;;5051995;28;20220;-53
2022/06/24 14:48:41;;;;;;;1.73;1.60;;;;;;;;;;5051517;28;20276;-54
2022/06/24 14:51:08;;;;;;;2.97;1.57;;;;;;;;;;5052015;28;20198;-54
2022/06/24 14:53:34;;;;;;;3.00;1.70;;;;;;;;;;5051930;28;20666;-54
2022/06/24 14:56:00;;;;;;;3.27;1.90;;;;;;;;;;5051882;28;20219;-53
2022/06/24 14:58:26;;;;;;;4.53;1.80;;;;;;;;;;5051973;28;20224;-53
2022/06/24 15:00:52;;;;;;;4.63;2.00;;;;;;;;;;5051829;28;20680;-54
2022/06/24 15:03:18;;;;;;;3.03;1.73;;;;;;;;;;5051974;28;20296;-54